Grete Maersk — OYCY2 — position and weather

sailwx.info

Track history (hours):
 
Tides and Currents Weather Stations Pressure Air Temp Water Temp Dewpoint Dewpoint Depression Visibility Wind Speed Wind Dir Waves Ship Positions

Grete Maersk

Last reported at 2016-Jun-25 09:31 UTC. Time now 2016-Jun-25 14:18 UTC.
Position N 44°09' E 014°22'.

MMSI: 218824136.

Date/timePositionNaut miles runAvg speedWind from/ knotsBaromVisibWave heightAir tempDewpointWater temp
2016-Jun-25 09:31N 44°09' E 014°22'1818.9
2016-Jun-25 08:33N 44°26' E 014°11'29 0.9
2016-Jun-23 23:18N 44°41' E 013°36'1916.8
2016-Jun-23 22:10N 44°55' E 013°18'1116.9
2016-Jun-23 21:31N 45°05' E 013°10'1816.5
2016-Jun-23 20:26N 45°21' E 013°01'34 0.8
2016-Jun-22 01:30N 45°40' E 013°42'0 0.0
2016-Jun-22 00:33N 45°40' E 013°42'16 0.3
2016-Jun-20 01:14N 45°31' E 013°24'1015.1
2016-Jun-20 00:33N 45°24' E 013°12'1615.9
2016-Jun-19 23:33N 45°09' E 013°17'38317.4
2016-Jun-19 01:33N 40°16' E 018°51'1818.0
2016-Jun-19 00:33N 39°59' E 019°01'2118.0
2016-Jun-18 23:23N 39°40' E 019°13'1518.2
2016-Jun-18 22:33N 39°27' E 019°22'4018.3
2016-Jun-18 20:22N 38°50' E 019°41'5518.6
2016-Jun-18 17:26N 37°60' E 020°09'64617.1
2016-Jun-17 03:33N 33°21' E 032°08'1817.8
2016-Jun-17 02:33N 33°18' E 032°29'1818.5
2016-Jun-17 01:33N 33°14' E 032°50'1918.6
2016-Jun-17 00:33N 33°11' E 033°12'1918.6
2016-Jun-16 23:33N 33°08' E 033°34'1918.4
2016-Jun-16 22:32N 33°04' E 033°56'2418.4
2016-Jun-16 21:13N 32°59' E 034°24'1218.4
2016-Jun-16 20:33N 32°57' E 034°39'1515.0
2016-Jun-16 19:34N 32°52' E 034°55'5 5.2
2016-Jun-16 18:34N 32°49' E 035°01'0 0.2
2016-Jun-16 17:32N 32°49' E 035°01'0 0.0
2016-Jun-16 16:32N 32°49' E 035°01'0 0.0
2016-Jun-16 15:32N 32°49' E 035°01'0 0.0
2016-Jun-16 14:32N 32°49' E 035°01'0 0.0
2016-Jun-16 13:32N 32°49' E 035°01'0 0.0
2016-Jun-16 12:32N 32°49' E 035°01'0 0.0
2016-Jun-16 11:26N 32°49' E 035°01'0 0.0
2016-Jun-16 10:32N 32°49' E 035°01'0 0.0
2016-Jun-16 09:32N 32°49' E 035°01'0 0.0
2016-Jun-16 08:32N 32°49' E 035°01'0 0.0
2016-Jun-16 07:32N 32°49' E 035°01'0 0.0
2016-Jun-16 06:32N 32°49' E 035°01'0 0.0
2016-Jun-16 05:32N 32°49' E 035°01'0 0.0
2016-Jun-16 04:32N 32°49' E 035°01'0 0.0
2016-Jun-16 03:32N 32°49' E 035°01'0 0.0
2016-Jun-16 02:32N 32°49' E 035°01'0 0.0
2016-Jun-16 01:32N 32°49' E 035°01'0 0.0
2016-Jun-16 00:32N 32°49' E 035°01'0 0.0
2016-Jun-15 23:32N 32°49' E 035°01'0 0.0
2016-Jun-15 22:29N 32°49' E 035°01'0 0.3
2016-Jun-15 21:33N 32°49' E 035°01'4 3.8
2016-Jun-15 20:33N 32°52' E 034°57'3214.9
2016-Jun-15 18:24N 32°40' E 034°21'1920.3
2016-Jun-15 17:27N 32°30' E 034°02'4020.6
2016-Jun-15 15:29N 32°07' E 033°22'7117.6
2016-Jun-15 11:28N 31°18' E 032°22'  
Track history (hours):
 
Tides and Currents Weather Stations Pressure Air Temp Water Temp Dewpoint Dewpoint Depression Visibility Wind Speed Wind Dir Waves Ship Positions

Grete Maersk

Last reported at 2016-Jun-25 09:31 UTC. Time now 2016-Jun-25 14:18 UTC.
Position N 44°09' E 014°22'.

MMSI: 218824136.

Date/timePositionNaut miles runAvg speedWind from/ knotsBaromVisibWave heightAir tempDewpointWater temp
2016-Jun-25 09:31N 44°09' E 014°22'1818.9
2016-Jun-25 08:33N 44°26' E 014°11'29 0.9
2016-Jun-23 23:18N 44°41' E 013°36'1916.8
2016-Jun-23 22:10N 44°55' E 013°18'1116.9
2016-Jun-23 21:31N 45°05' E 013°10'1816.5
2016-Jun-23 20:26N 45°21' E 013°01'34 0.8
2016-Jun-22 01:30N 45°40' E 013°42'0 0.0
2016-Jun-22 00:33N 45°40' E 013°42'16 0.3
2016-Jun-20 01:14N 45°31' E 013°24'1015.1
2016-Jun-20 00:33N 45°24' E 013°12'1615.9
2016-Jun-19 23:33N 45°09' E 013°17'38317.4
2016-Jun-19 01:33N 40°16' E 018°51'1818.0
2016-Jun-19 00:33N 39°59' E 019°01'2118.0
2016-Jun-18 23:23N 39°40' E 019°13'1518.2
2016-Jun-18 22:33N 39°27' E 019°22'4018.3
2016-Jun-18 20:22N 38°50' E 019°41'5518.6
2016-Jun-18 17:26N 37°60' E 020°09'64617.1
2016-Jun-17 03:33N 33°21' E 032°08'1817.8
2016-Jun-17 02:33N 33°18' E 032°29'1818.5
2016-Jun-17 01:33N 33°14' E 032°50'1918.6
2016-Jun-17 00:33N 33°11' E 033°12'1918.6
2016-Jun-16 23:33N 33°08' E 033°34'1918.4
2016-Jun-16 22:32N 33°04' E 033°56'2418.4
2016-Jun-16 21:13N 32°59' E 034°24'1218.4
2016-Jun-16 20:33N 32°57' E 034°39'1515.0
2016-Jun-16 19:34N 32°52' E 034°55'5 5.2
2016-Jun-16 18:34N 32°49' E 035°01'0 0.2
2016-Jun-16 17:32N 32°49' E 035°01'0 0.0
2016-Jun-16 16:32N 32°49' E 035°01'0 0.0
2016-Jun-16 15:32N 32°49' E 035°01'0 0.0
2016-Jun-16 14:32N 32°49' E 035°01'0 0.0
2016-Jun-16 13:32N 32°49' E 035°01'0 0.0
2016-Jun-16 12:32N 32°49' E 035°01'0 0.0
2016-Jun-16 11:26N 32°49' E 035°01'0 0.0
2016-Jun-16 10:32N 32°49' E 035°01'0 0.0
2016-Jun-16 09:32N 32°49' E 035°01'0 0.0
2016-Jun-16 08:32N 32°49' E 035°01'0 0.0
2016-Jun-16 07:32N 32°49' E 035°01'0 0.0
2016-Jun-16 06:32N 32°49' E 035°01'0 0.0
2016-Jun-16 05:32N 32°49' E 035°01'0 0.0
2016-Jun-16 04:32N 32°49' E 035°01'0 0.0
2016-Jun-16 03:32N 32°49' E 035°01'0 0.0
2016-Jun-16 02:32N 32°49' E 035°01'0 0.0
2016-Jun-16 01:32N 32°49' E 035°01'0 0.0
2016-Jun-16 00:32N 32°49' E 035°01'0 0.0
2016-Jun-15 23:32N 32°49' E 035°01'0 0.0
2016-Jun-15 22:29N 32°49' E 035°01'0 0.3
2016-Jun-15 21:33N 32°49' E 035°01'4 3.8
2016-Jun-15 20:33N 32°52' E 034°57'3214.9
2016-Jun-15 18:24N 32°40' E 034°21'1920.3
2016-Jun-15 17:27N 32°30' E 034°02'4020.6
2016-Jun-15 15:29N 32°07' E 033°22'7117.6
2016-Jun-15 11:28N 31°18' E 032°22'  

Dump ship's entire track history